Terminal Aerodrome Forecast
Issued by NWS

Home | Current Version | Previous Version | Text Only | Print | Product List | Glossary On
Versions: 1 2 3 4 5 6 7 8 9 10 11 12 13
153
FTUS44 KTSA 211734
TAFBVO
TAF
KBVO 211734Z 2118/2218 06004KT 5SM -RA BR OVC070
     FM212100 01006KT 5SM -RA BR OVC012
     FM220300 36006KT 5SM -RA BR OVC007
     FM221400 01010KT 5SM -RA BR OVC010=

USA.gov is the U.S. government's official web portal to all federal, state and local government web resources and services.